This is the latest recevied weather packets stored in our database for station/object KF6ILA. If no packets are shown the sender has not sent any weather packets the latest 1 day(s).
| Time | Temp. | Humidity | Pressure | Rain* | Wind** | Luminosity | Snow |
|---|---|---|---|---|---|---|---|
| 1836274828 | 16.11° C | 95% | 1015.6 hPa | 0 mm | 3.58 m/s, 242° | 0 W/m² | - |
| 1836274531 | 16.11° C | 96% | 1015.7 hPa | 0 mm | 3.58 m/s, 243° | 0 W/m² | - |
| 1836274375 | 16.67° C | 93% | 1015.8 hPa | 0 mm | 3.58 m/s, 243° | 0 W/m² | - |
| 1836274234 | 16.11° C | 96% | 1015.7 hPa | 0 mm | 3.13 m/s, 238° | 0 W/m² | - |
| 1778046771 | 4.44° C | 97% | 1013.6 hPa | 0 mm | 8.05 m/s, 261° | 0 W/m² | - |
| 1778046474 | 4.44° C | 98% | 1013.9 hPa | 0 mm | 6.71 m/s, 258° | 0 W/m² | - |
| 1778046177 | 4.44° C | 98% | 1013.9 hPa | 0 mm | 7.15 m/s, 255° | 0 W/m² | - |
| 1778045880 | 4.44° C | 98% | 1013.9 hPa | 0 mm | 6.26 m/s, 261° | 0 W/m² | - |
| 1778045583 | 5° C | 98% | 1013.5 hPa | 0 mm | 5.81 m/s, 261° | 0 W/m² | - |
| 1778045286 | 5° C | 98% | 1013.6 hPa | 0 mm | 6.71 m/s, 260° | 0 W/m² | - |
| 1778044989 | 5° C | 98% | 1013.6 hPa | 0 mm | 6.26 m/s, 249° | 0 W/m² | - |
| 1778044692 | 5° C | 98% | 1013.6 hPa | 0 mm | 5.81 m/s, 254° | 0 W/m² | - |
| 1778044396 | 5° C | 98% | 1013.5 hPa | 0 mm | 5.81 m/s, 258° | 0 W/m² | - |
| 1778043801 | 5° C | 98% | 1013.5 hPa | 0 mm | 4.92 m/s, 259° | 0 W/m² | - |
| 1778043504 | 5° C | 97% | 1013.5 hPa | 0 mm | 6.71 m/s, 267° | 0 W/m² | - |
| 1778043207 | 5° C | 97% | 1013.5 hPa | 0 mm | 6.26 m/s, 248° | 0 W/m² | - |
| 1778042910 | 5° C | 97% | 1013.4 hPa | 0 mm | 5.36 m/s, 254° | 0 W/m² | - |
| 1778042613 | 5° C | 97% | 1013.4 hPa | 0 mm | 6.26 m/s, 256° | 0 W/m² | - |
| 1778042316 | 5° C | 97% | 1013.3 hPa | 0 mm | 6.71 m/s, 261° | 0 W/m² | - |
| 1778042019 | 5° C | 97% | 1013.2 hPa | 0 mm | 7.6 m/s, 258° | 0 W/m² | - |
| 1778041780 | 5° C | 97% | 1013.1 hPa | 0 mm | 7.15 m/s, 257° | 0 W/m² | - |
| 1778041722 | 5° C | 97% | 1013.1 hPa | 0 mm | 7.15 m/s, 257° | 0 W/m² | - |
| 1778041425 | 5° C | 97% | 1013 hPa | 0 mm | 7.15 m/s, 257° | 0 W/m² | - |
| 1778041128 | 5° C | 97% | 1013 hPa | 0 mm | 6.71 m/s, 256° | 0 W/m² | - |
| 1778040831 | 5° C | 97% | 1012.9 hPa | 0 mm | 7.15 m/s, 256° | 0 W/m² | - |
* Rain latest hour (hover to see other rain measurements)
** Current wind speed in m/s (hover to see current wind gust speed)